createdAt,value
2019-04-10T00:00:47.778Z,101076.80
2019-04-10T00:03:27.922Z,101077.85
2019-04-10T00:05:50.006Z,101083.18
2019-04-10T00:08:19.886Z,101087.70
2019-04-10T00:10:49.807Z,101078.66
2019-04-10T00:13:20.539Z,101083.18
2019-04-10T00:15:50.777Z,101083.20
2019-04-10T00:18:20.784Z,101084.00
2019-04-10T00:20:51.111Z,101091.16
2019-04-10T00:23:20.985Z,101085.59
2019-04-10T00:25:50.957Z,101088.23
2019-04-10T00:28:20.742Z,101086.91
2019-04-10T00:30:51.555Z,101091.70
2019-04-10T00:33:21.345Z,101097.27
2019-04-10T00:35:51.954Z,101097.52
2019-04-10T00:38:21.871Z,101100.18
2019-04-10T00:40:52.011Z,101097.77
2019-04-10T00:43:22.561Z,101101.50
2019-04-10T00:45:53.507Z,101101.51
2019-04-10T00:48:23.960Z,101096.44
2019-04-10T00:50:54.900Z,101101.50
2019-04-10T00:53:25.293Z,101108.91
2019-04-10T00:55:55.141Z,101107.85
2019-04-10T00:58:25.864Z,101109.17
2019-04-10T01:00:55.657Z,101105.70
2019-04-10T01:03:44.036Z,101109.69
2019-04-10T01:06:15.651Z,101105.69
2019-04-10T01:08:45.831Z,101101.13
2019-04-10T01:11:17.021Z,101097.72
2019-04-10T01:13:47.411Z,101093.70
2019-04-10T01:16:17.933Z,101094.73
2019-04-10T01:18:47.897Z,101088.61
2019-04-10T01:21:18.010Z,101090.20
2019-04-10T01:23:48.948Z,101090.20
2019-04-10T01:26:19.135Z,101097.09
2019-04-10T01:28:49.216Z,101102.38
2019-04-10T01:31:19.980Z,101098.39
2019-04-10T01:33:49.838Z,101095.72
2019-04-10T01:36:20.651Z,101093.85
2019-04-10T01:38:51.639Z,101091.44
2019-04-10T01:41:21.652Z,101098.05
2019-04-10T01:43:51.502Z,101098.33
2019-04-10T01:46:22.288Z,101103.06
2019-04-10T01:48:52.021Z,101088.73
2019-04-10T01:51:21.701Z,101095.58
2019-04-10T01:53:52.307Z,101091.34
2019-04-10T01:56:29.460Z,101095.55
2019-04-10T01:58:53.763Z,101093.38
2019-04-10T02:01:30.594Z,101086.55
2019-04-10T02:04:00.598Z,101092.55
2019-04-10T02:06:31.507Z,101092.81
2019-04-10T02:09:02.442Z,101091.45
2019-04-10T02:11:32.316Z,101097.76
2019-04-10T02:14:02.042Z,101100.41
2019-04-10T02:16:32.637Z,101103.36
2019-04-10T02:19:02.354Z,101102.83
2019-04-10T02:21:32.466Z,101105.68
2019-04-10T02:24:02.931Z,101104.32
2019-04-10T02:26:33.832Z,101103.80
2019-04-10T02:29:03.868Z,101107.48
2019-04-10T02:31:34.598Z,101113.08
2019-04-10T02:34:05.329Z,101109.36
2019-04-10T02:36:36.341Z,101105.97
2019-04-10T02:39:19.179Z,101109.36
2019-04-10T02:41:38.805Z,101111.42
2019-04-10T02:44:10.002Z,101105.57
2019-04-10T02:46:41.286Z,101119.38
2019-04-10T02:49:12.332Z,101115.07
2019-04-10T02:51:43.275Z,101116.87
2019-04-10T02:54:13.773Z,101118.23
2019-04-10T02:56:45.791Z,101119.99
2019-04-10T02:59:15.825Z,101119.73
2019-04-10T03:01:45.674Z,101113.03
2019-04-10T03:04:16.537Z,101112.77
2019-04-10T03:06:47.176Z,101114.39
2019-04-10T03:09:32.507Z,101120.71
2019-04-10T03:11:49.853Z,101120.71
2019-04-10T03:14:21.156Z,101119.00
2019-04-10T03:16:51.437Z,101118.70
2019-04-10T03:19:21.471Z,101116.81
2019-04-10T03:21:51.404Z,101117.23
2019-04-10T03:24:21.322Z,101119.42
2019-04-10T03:26:52.173Z,101118.04
2019-04-10T03:29:22.030Z,101123.81
2019-04-10T03:31:52.954Z,101124.55
2019-04-10T03:34:26.121Z,101134.53
2019-04-10T03:36:56.200Z,101128.63
2019-04-10T03:39:26.034Z,101134.06
2019-04-10T03:41:56.724Z,101134.83
2019-04-10T03:44:27.060Z,101135.99
2019-04-10T03:46:56.839Z,101135.99
2019-04-10T03:49:27.560Z,101138.53
2019-04-10T03:51:57.438Z,101147.48
2019-04-10T03:54:28.010Z,101149.52
2019-04-10T03:56:58.289Z,101153.87
2019-04-10T03:59:28.542Z,101145.93
2019-04-10T04:01:59.624Z,101148.45
2019-04-10T04:04:29.336Z,101152.78
2019-04-10T04:06:59.899Z,101154.36
2019-04-10T04:09:29.940Z,101154.48
2019-04-10T04:11:59.637Z,101161.52
2019-04-10T04:14:30.244Z,101165.43
2019-04-10T04:17:00.246Z,101159.25
2019-04-10T04:19:30.973Z,101153.98
2019-04-10T04:22:00.729Z,101154.73
2019-04-10T04:24:31.486Z,101153.97
2019-04-10T04:27:01.346Z,101146.66
2019-04-10T04:29:31.098Z,101158.58
2019-04-10T04:32:01.213Z,101162.54
2019-04-10T04:34:31.310Z,101165.36
2019-04-10T04:37:01.076Z,101164.55
2019-04-10T04:39:31.553Z,101171.88
2019-04-10T04:42:01.306Z,101170.80
2019-04-10T04:44:31.150Z,101179.19
2019-04-10T04:47:01.200Z,101183.54
2019-04-10T04:49:31.111Z,101180.89
2019-04-10T04:52:00.861Z,101181.17
2019-04-10T04:54:30.982Z,101174.24
2019-04-10T04:57:00.850Z,101184.00
2019-04-10T04:59:30.580Z,101183.53
2019-04-10T05:02:01.250Z,101192.27
2019-04-10T05:04:32.412Z,101189.69
2019-04-10T05:07:02.555Z,101201.36
2019-04-10T05:09:37.011Z,101205.33
2019-04-10T05:12:03.980Z,101199.50
2019-04-10T05:14:33.815Z,101215.05
2019-04-10T05:17:03.880Z,101202.35
2019-04-10T05:19:34.083Z,101210.34
2019-04-10T05:22:04.038Z,101207.91
2019-04-10T05:24:33.693Z,101211.63
2019-04-10T05:27:03.572Z,101216.55
2019-04-10T05:29:34.517Z,101221.42
2019-04-10T05:32:05.122Z,101220.70
2019-04-10T05:34:34.870Z,101226.82
2019-04-10T05:37:05.281Z,101229.80
2019-04-10T05:39:44.435Z,101236.31
2019-04-10T05:42:06.478Z,101240.03
2019-04-10T05:44:36.152Z,101243.86
2019-04-10T05:47:06.039Z,101242.92
2019-04-10T05:49:35.749Z,101246.67
2019-04-10T05:52:06.133Z,101252.81
2019-04-10T05:54:37.349Z,101256.45
2019-04-10T05:57:08.242Z,101260.41
2019-04-10T05:59:38.355Z,101252.83
2019-04-10T06:02:09.332Z,101262.61
2019-04-10T06:04:39.312Z,101257.56
2019-04-10T06:07:09.010Z,101266.45
2019-04-10T06:09:38.787Z,101273.18
2019-04-10T06:12:09.780Z,101273.47
2019-04-10T06:14:40.060Z,101277.71
2019-04-10T06:17:10.138Z,101281.03
2019-04-10T06:19:40.875Z,101280.52
2019-04-10T06:22:11.197Z,101279.45
2019-04-10T06:24:42.502Z,101280.11
2019-04-10T06:27:12.320Z,101282.08
2019-04-10T06:29:44.561Z,101273.97
2019-04-10T06:32:13.587Z,101266.66
2019-04-10T06:34:43.451Z,101277.20
2019-04-10T06:37:13.568Z,101276.37
2019-04-10T06:39:44.513Z,101277.53
2019-04-10T06:42:14.937Z,101274.59
2019-04-10T06:44:46.066Z,101277.28
2019-04-10T06:47:16.086Z,101273.58
2019-04-10T06:49:46.167Z,101275.88
2019-04-10T06:52:16.684Z,101273.53
2019-04-10T06:54:47.001Z,101272.08
2019-04-10T06:57:16.986Z,101271.63
2019-04-10T06:59:46.693Z,101273.19
2019-04-10T07:02:24.654Z,101272.97
2019-04-10T07:04:53.078Z,101277.55
2019-04-10T07:07:21.591Z,101283.20
2019-04-10T07:09:52.311Z,101282.08
2019-04-10T07:12:23.986Z,101281.77
2019-04-10T07:14:57.780Z,101289.25
2019-04-10T07:17:25.275Z,101280.80
2019-04-10T07:19:55.616Z,101289.36
2019-04-10T07:22:25.596Z,101280.41
2019-04-10T07:24:56.362Z,101286.02
2019-04-10T07:27:26.171Z,101291.19
2019-04-10T07:29:59.346Z,101285.72
2019-04-10T07:32:27.833Z,101287.48
2019-04-10T07:34:59.995Z,101290.26
2019-04-10T07:37:29.161Z,101301.30
2019-04-10T07:40:02.600Z,101310.08
2019-04-10T07:42:35.245Z,101305.67
2019-04-10T07:45:02.174Z,101301.77
2019-04-10T07:47:31.945Z,101315.63
2019-04-10T07:50:02.274Z,101306.70
2019-04-10T07:52:33.094Z,101316.62
2019-04-10T07:55:02.861Z,101313.69
2019-04-10T07:57:32.897Z,101314.98
2019-04-10T08:00:03.124Z,101322.21
2019-04-10T08:02:33.831Z,101319.05
2019-04-10T08:05:04.443Z,101312.57
2019-04-10T08:07:36.303Z,101313.70
2019-04-10T08:10:08.401Z,101321.20
2019-04-10T08:12:45.950Z,101323.69
2019-04-10T08:15:10.998Z,101328.66
2019-04-10T08:17:41.071Z,101316.03
2019-04-10T08:20:11.565Z,101324.34
2019-04-10T08:22:41.268Z,101320.91
2019-04-10T08:25:11.818Z,101318.64
2019-04-10T08:27:41.831Z,101325.78
2019-04-10T08:30:13.290Z,101325.63
2019-04-10T08:32:55.803Z,101327.88
2019-04-10T08:35:15.483Z,101327.55
2019-04-10T08:37:45.367Z,101331.72
2019-04-10T08:40:16.179Z,101325.01
2019-04-10T08:42:46.650Z,101325.09
2019-04-10T08:45:17.512Z,101321.39
2019-04-10T08:47:47.185Z,101328.03
2019-04-10T08:50:17.376Z,101326.96
2019-04-10T08:52:47.235Z,101331.34
2019-04-10T08:55:17.734Z,101332.77
2019-04-10T08:57:47.524Z,101340.66
2019-04-10T09:00:18.603Z,101335.45
2019-04-10T09:02:48.638Z,101339.20
2019-04-10T09:05:19.606Z,101343.41
2019-04-10T09:07:50.557Z,101337.92
2019-04-10T09:10:20.625Z,101346.75
2019-04-10T09:12:51.645Z,101342.03
2019-04-10T09:15:21.831Z,101351.36
2019-04-10T09:17:51.515Z,101339.90
2019-04-10T09:20:21.220Z,101332.80
2019-04-10T09:23:14.541Z,101329.70
2019-04-10T09:25:22.915Z,101332.17
2019-04-10T09:27:53.804Z,101338.53
2019-04-10T09:30:24.727Z,101327.38
2019-04-10T09:32:54.866Z,101337.38
2019-04-10T09:35:24.740Z,101338.80
2019-04-10T09:37:54.601Z,101332.97
2019-04-10T09:40:24.598Z,101337.17
2019-04-10T09:42:55.475Z,101334.56
2019-04-10T09:45:26.670Z,101334.56
2019-04-10T09:47:56.482Z,101335.39
2019-04-10T09:50:27.588Z,101338.86
2019-04-10T09:52:57.422Z,101324.73
2019-04-10T09:55:27.693Z,101334.86
2019-04-10T09:57:57.557Z,101328.72
2019-04-10T10:00:27.849Z,101330.59
2019-04-10T10:02:57.622Z,101330.29
2019-04-10T10:05:28.527Z,101318.59
2019-04-10T10:07:58.495Z,101323.30
2019-04-10T10:10:29.054Z,101325.70
2019-04-10T10:12:59.115Z,101318.54
2019-04-10T10:15:29.311Z,101325.17
2019-04-10T10:17:59.281Z,101323.26
2019-04-10T10:20:29.632Z,101316.37
2019-04-10T10:23:01.327Z,101315.59
2019-04-10T10:25:31.310Z,101318.84
2019-04-10T10:28:01.069Z,101318.54
2019-04-10T10:30:31.514Z,101317.98
2019-04-10T10:33:01.516Z,101318.29
2019-04-10T10:35:31.396Z,101318.00
2019-04-10T10:38:01.212Z,101338.24
2019-04-10T10:40:31.829Z,101326.52
2019-04-10T10:43:02.411Z,101329.74
2019-04-10T10:45:32.184Z,101327.90
2019-04-10T10:48:03.226Z,101331.36
2019-04-10T10:50:33.229Z,101325.22
2019-04-10T10:53:03.939Z,101336.09
2019-04-10T10:55:33.863Z,101331.52
2019-04-10T10:58:03.736Z,101331.87
2019-04-10T11:00:33.605Z,101323.35
2019-04-10T11:03:03.410Z,101334.47
2019-04-10T11:05:33.347Z,101335.23
2019-04-10T11:08:03.196Z,101330.23
2019-04-10T11:10:33.809Z,101326.26
2019-04-10T11:13:03.628Z,101318.78
2019-04-10T11:15:34.171Z,101331.20
2019-04-10T11:18:04.315Z,101329.59
2019-04-10T11:20:34.097Z,101328.52
2019-04-10T11:23:04.045Z,101339.73
2019-04-10T11:25:34.151Z,101335.42
2019-04-10T11:28:04.070Z,101330.66
2019-04-10T11:30:34.566Z,101339.22
2019-04-10T11:33:04.477Z,101329.61
2019-04-10T11:35:34.923Z,101329.52
2019-04-10T11:38:05.841Z,101337.02
2019-04-10T11:40:36.544Z,101326.86
2019-04-10T11:43:07.680Z,101332.69
2019-04-10T11:48:10.290Z,101328.41
2019-04-10T11:50:42.482Z,101332.38
2019-04-10T11:53:13.662Z,101335.30
2019-04-10T11:55:49.551Z,101330.40
2019-04-10T11:58:17.666Z,101331.67
2019-04-10T12:03:18.322Z,101336.48
2019-04-10T12:05:51.147Z,101341.56
2019-04-10T12:08:44.730Z,101339.27
2019-04-10T12:13:24.153Z,101334.69
2019-04-10T12:15:53.891Z,101336.83
2019-04-10T12:18:24.653Z,101331.98
2019-04-10T12:20:55.586Z,101339.33
2019-04-10T12:23:27.139Z,101333.66
2019-04-10T12:25:57.069Z,101339.42
2019-04-10T12:28:27.730Z,101339.08
2019-04-10T12:30:57.716Z,101340.48
2019-04-10T12:33:27.644Z,101353.83
2019-04-10T12:35:58.229Z,101352.49
2019-04-10T12:38:28.070Z,101337.77
2019-04-10T12:40:57.739Z,101333.62
2019-04-10T12:43:29.306Z,101330.83
2019-04-10T12:46:00.253Z,101335.52
2019-04-10T12:48:30.468Z,101323.46
2019-04-10T12:51:01.172Z,101339.89
2019-04-10T12:53:31.754Z,101338.27
2019-04-10T12:56:02.011Z,101337.94
2019-04-10T12:58:32.907Z,101344.66
2019-04-10T13:01:03.159Z,101343.94
2019-04-10T13:03:33.425Z,101335.31
2019-04-10T13:06:03.498Z,101338.50
2019-04-10T13:08:51.489Z,101327.14
2019-04-10T13:11:04.826Z,101328.24
2019-04-10T13:13:35.760Z,101336.09
2019-04-10T13:16:05.755Z,101327.68
2019-04-10T13:18:36.428Z,101336.80
2019-04-10T13:21:06.398Z,101330.80
2019-04-10T13:23:37.005Z,101320.78
2019-04-10T13:26:10.577Z,101337.44
2019-04-10T13:28:39.426Z,101332.47
2019-04-10T13:31:09.286Z,101342.97
2019-04-10T13:33:40.516Z,101331.19
2019-04-10T13:36:11.349Z,101328.94
2019-04-10T13:38:42.174Z,101336.30
2019-04-10T13:41:12.307Z,101329.06
2019-04-10T13:43:42.272Z,101329.58
2019-04-10T13:46:12.964Z,101330.41
2019-04-10T13:48:42.999Z,101325.44
2019-04-10T13:51:13.121Z,101328.80
2019-04-10T13:53:42.948Z,101325.53
2019-04-10T13:56:12.892Z,101332.48
2019-04-10T13:58:42.681Z,101325.48
2019-04-10T14:01:15.407Z,101329.35
2019-04-10T14:03:46.836Z,101324.28
2019-04-10T14:06:17.225Z,101336.17
2019-04-10T14:09:04.740Z,101337.48
2019-04-10T14:11:19.354Z,101335.41
2019-04-10T14:13:49.256Z,101339.33
2019-04-10T14:16:18.933Z,101340.55
2019-04-10T14:18:48.825Z,101348.95
2019-04-10T14:21:18.918Z,101342.09
2019-04-10T14:23:48.730Z,101340.09
2019-04-10T14:26:46.020Z,101336.31
2019-04-10T14:29:07.666Z,101350.43
2019-04-10T14:31:42.668Z,101336.88
2019-04-10T14:34:12.457Z,101349.63
2019-04-10T14:36:42.386Z,101345.36
2019-04-10T14:39:19.336Z,101340.17
2019-04-10T14:41:47.466Z,101341.10
2019-04-10T14:44:17.908Z,101347.31
2019-04-10T14:46:47.754Z,101351.16
2019-04-10T14:49:17.457Z,101361.03
2019-04-10T14:51:47.138Z,101367.16
2019-04-10T14:54:17.219Z,101352.77
2019-04-10T14:56:48.349Z,101361.91
2019-04-10T14:59:18.307Z,101362.53
2019-04-10T15:01:48.371Z,101355.66
2019-04-10T15:04:19.315Z,101360.69
2019-04-10T15:06:50.014Z,101368.25
2019-04-10T15:09:25.722Z,101362.94
2019-04-10T15:11:53.292Z,101364.23
2019-04-10T15:14:23.723Z,101364.31
2019-04-10T15:17:00.038Z,101366.66
2019-04-10T15:19:25.210Z,101370.22
2019-04-10T15:21:55.741Z,101389.55
2019-04-10T15:24:25.828Z,101375.72
2019-04-10T15:26:55.759Z,101372.70
2019-04-10T15:29:25.518Z,101380.81
2019-04-10T15:31:55.896Z,101380.94
2019-04-10T15:34:26.129Z,101383.90
2019-04-10T15:36:56.399Z,101380.14
2019-04-10T15:39:34.017Z,101390.88
2019-04-10T15:41:57.679Z,101383.83
2019-04-10T15:44:27.988Z,101386.17
2019-04-10T15:47:08.539Z,101383.88
2019-04-10T15:49:30.634Z,101397.39
2019-04-10T15:52:01.522Z,101392.78
2019-04-10T15:54:32.128Z,101392.53
2019-04-10T15:57:02.634Z,101402.86
2019-04-10T15:59:32.621Z,101398.89
2019-04-10T16:02:03.528Z,101392.33
2019-04-10T16:04:33.766Z,101389.06
2019-04-10T16:07:04.130Z,101402.41
2019-04-10T16:09:44.610Z,101402.63
2019-04-10T16:12:08.125Z,101403.05
2019-04-10T16:14:38.118Z,101407.58
2019-04-10T16:17:13.475Z,101409.20
2019-04-10T16:19:47.078Z,101411.41
2019-04-10T16:22:21.853Z,101411.59
2019-04-10T16:24:51.939Z,101416.96
2019-04-10T16:27:22.152Z,101409.57
2019-04-10T16:29:52.914Z,101418.11
2019-04-10T16:32:24.711Z,101418.61
2019-04-10T16:34:54.704Z,101419.10
2019-04-10T16:37:24.681Z,101417.83
2019-04-10T16:40:00.307Z,101422.14
2019-04-10T16:42:26.536Z,101424.84
2019-04-10T16:44:57.538Z,101426.14
2019-04-10T16:47:28.260Z,101438.41
2019-04-10T16:49:59.229Z,101428.28
2019-04-10T16:52:29.225Z,101432.09
2019-04-10T16:54:59.788Z,101431.98
2019-04-10T16:57:29.718Z,101450.70
2019-04-10T16:59:59.430Z,101436.87
2019-04-10T17:02:29.155Z,101445.73
2019-04-10T17:04:59.050Z,101448.66
2019-04-10T17:07:28.766Z,101446.83
2019-04-10T17:10:12.616Z,101441.80
2019-04-10T17:12:30.095Z,101447.92
2019-04-10T17:14:59.857Z,101442.02
2019-04-10T17:17:30.526Z,101452.73
2019-04-10T17:20:00.625Z,101455.46
2019-04-10T17:22:37.305Z,101454.91
2019-04-10T17:25:02.288Z,101461.58
2019-04-10T17:27:32.175Z,101464.75
2019-04-10T17:30:03.304Z,101470.09
2019-04-10T17:32:33.220Z,101467.42
2019-04-10T17:35:03.258Z,101474.41
2019-04-10T17:37:33.873Z,101470.66
2019-04-10T17:40:06.176Z,101473.32
2019-04-10T17:42:37.698Z,101477.05
2019-04-10T17:45:10.042Z,101490.13
2019-04-10T17:47:40.906Z,101478.67
2019-04-10T17:50:14.034Z,101480.55
2019-04-10T17:52:45.155Z,101488.54
2019-04-10T17:55:15.613Z,101482.66
2019-04-10T17:57:46.403Z,101494.67
2019-04-10T18:00:40.010Z,101498.92
2019-04-10T18:03:10.970Z,101510.13
2019-04-10T18:05:40.910Z,101507.20
2019-04-10T18:08:10.899Z,101510.38
2019-04-10T18:10:47.447Z,101512.23
2019-04-10T18:13:13.305Z,101515.43
2019-04-10T18:15:44.150Z,101516.75
2019-04-10T18:18:14.058Z,101513.03
2019-04-10T18:20:44.397Z,101524.45
2019-04-10T18:23:15.422Z,101526.33
2019-04-10T18:25:46.400Z,101533.26
2019-04-10T18:28:17.098Z,101543.90
2019-04-10T18:30:48.078Z,101547.08
2019-04-10T18:33:18.301Z,101546.78
2019-04-10T18:35:49.067Z,101550.25
2019-04-10T18:38:19.561Z,101552.09
2019-04-10T18:40:55.963Z,101558.47
2019-04-10T18:43:20.884Z,101555.78
2019-04-10T18:46:02.912Z,101556.05
2019-04-10T18:48:22.861Z,101567.50
2019-04-10T18:50:53.786Z,101564.83
2019-04-10T18:53:24.689Z,101573.05
2019-04-10T18:55:54.698Z,101568.78
2019-04-10T18:58:26.013Z,101575.69
2019-04-10T19:01:14.244Z,101576.56
2019-04-10T19:04:03.075Z,101581.02
2019-04-10T19:06:34.237Z,101582.84
2019-04-10T19:09:13.168Z,101589.23
2019-04-10T19:11:38.308Z,101588.11
2019-04-10T19:14:08.077Z,101596.33
2019-04-10T19:16:37.990Z,101597.11
2019-04-10T19:19:08.521Z,101600.48
2019-04-10T19:21:38.308Z,101602.59
2019-04-10T19:24:08.467Z,101598.30
2019-04-10T19:26:38.288Z,101610.20
2019-04-10T19:29:08.123Z,101606.22
2019-04-10T19:31:40.275Z,101613.09
2019-04-10T19:34:10.135Z,101612.28
2019-04-10T19:36:39.873Z,101620.47
2019-04-10T19:39:10.759Z,101622.02
2019-04-10T19:41:41.831Z,101625.19
2019-04-10T19:44:12.867Z,101623.78
2019-04-10T19:46:43.820Z,101630.13
2019-04-10T19:49:14.297Z,101634.38
2019-04-10T19:51:44.144Z,101632.22
2019-04-10T19:54:13.902Z,101638.61
2019-04-10T19:56:44.621Z,101640.14
2019-04-10T19:59:14.594Z,101646.70
2019-04-10T20:01:44.551Z,101653.66
2019-04-10T20:04:14.518Z,101653.30
2019-04-10T20:06:44.769Z,101655.13
2019-04-10T20:09:14.804Z,101653.80
2019-04-10T20:11:48.727Z,101653.80
2019-04-10T20:14:16.872Z,101656.46
2019-04-10T20:16:49.281Z,101651.39
2019-04-10T20:19:19.356Z,101660.09
2019-04-10T20:21:50.299Z,101657.89
2019-04-10T20:24:20.795Z,101666.10
2019-04-10T20:26:51.735Z,101663.95
2019-04-10T20:29:21.487Z,101666.10
2019-04-10T20:31:53.315Z,101673.45
2019-04-10T20:34:23.294Z,101673.13
2019-04-10T20:36:53.335Z,101671.73
2019-04-10T20:39:23.232Z,101682.27
2019-04-10T20:41:56.309Z,101676.89
2019-04-10T20:44:24.883Z,101677.20
2019-04-10T20:46:54.902Z,101690.22
2019-04-10T20:49:25.860Z,101685.59
2019-04-10T20:51:55.780Z,101692.95
2019-04-10T20:54:25.531Z,101689.28
2019-04-10T20:56:55.248Z,101687.13
2019-04-10T20:59:25.059Z,101691.53
2019-04-10T21:01:55.824Z,101699.95
2019-04-10T21:04:25.603Z,101696.77
2019-04-10T21:06:56.494Z,101691.98
2019-04-10T21:09:27.668Z,101708.72
2019-04-10T21:12:03.872Z,101710.75
2019-04-10T21:14:29.673Z,101707.76
2019-04-10T21:17:00.362Z,101713.80
2019-04-10T21:19:31.209Z,101714.27
2019-04-10T21:22:01.632Z,101714.48
2019-04-10T21:24:31.584Z,101717.14
2019-04-10T21:27:01.384Z,101714.76
2019-04-10T21:29:50.589Z,101723.70
2019-04-10T21:32:30.710Z,101726.78
2019-04-10T21:35:02.200Z,101726.22
2019-04-10T21:37:32.619Z,101729.03
2019-04-10T21:40:02.802Z,101731.84
2019-04-10T21:42:33.589Z,101737.69
2019-04-10T21:45:03.491Z,101736.47
2019-04-10T21:47:33.449Z,101736.04
2019-04-10T21:50:04.490Z,101738.95
2019-04-10T21:52:34.802Z,101741.87
2019-04-10T21:55:07.046Z,101748.51
2019-04-10T21:57:36.835Z,101742.09
2019-04-10T22:00:10.401Z,101752.22
2019-04-10T22:02:40.189Z,101748.97
2019-04-10T22:05:12.368Z,101745.33
2019-04-10T22:07:48.290Z,101754.19
2019-04-10T22:10:34.905Z,101756.60
2019-04-10T22:13:05.790Z,101750.73
2019-04-10T22:15:37.420Z,101751.22
2019-04-10T22:18:07.389Z,101750.55
2019-04-10T22:20:37.292Z,101753.20
2019-04-10T22:23:07.548Z,101752.35
2019-04-10T22:25:37.418Z,101753.66
2019-04-10T22:28:08.332Z,101757.09
2019-04-10T22:30:38.386Z,101761.13
2019-04-10T22:33:08.152Z,101762.87
2019-04-10T22:35:37.892Z,101760.12
2019-04-10T22:38:08.896Z,101751.73
2019-04-10T22:40:38.584Z,101760.42
2019-04-10T22:43:08.460Z,101763.27
2019-04-10T22:45:38.375Z,101762.11
2019-04-10T22:48:08.432Z,101762.31
2019-04-10T22:50:38.619Z,101761.50
2019-04-10T22:53:08.861Z,101766.45
2019-04-10T22:55:38.575Z,101763.50
2019-04-10T22:58:08.698Z,101769.56
2019-04-10T23:00:39.724Z,101771.63
2019-04-10T23:03:09.703Z,101771.56
2019-04-10T23:05:40.571Z,101769.44
2019-04-10T23:08:11.541Z,101769.33
2019-04-10T23:10:41.452Z,101777.61
2019-04-10T23:13:12.016Z,101777.06
2019-04-10T23:15:42.143Z,101773.95
2019-04-10T23:18:12.987Z,101783.02
2019-04-10T23:20:43.826Z,101778.42
2019-04-10T23:23:14.652Z,101787.49
2019-04-10T23:25:44.740Z,101790.02
2019-04-10T23:28:15.607Z,101793.72
2019-04-10T23:30:45.431Z,101793.76
2019-04-10T23:33:15.552Z,101792.97
2019-04-10T23:35:45.489Z,101795.58
2019-04-10T23:38:15.299Z,101797.36
2019-04-10T23:40:45.215Z,101800.59
2019-04-10T23:43:17.865Z,101800.34
2019-04-10T23:45:47.677Z,101805.63
2019-04-10T23:48:17.934Z,101804.19
2019-04-10T23:50:48.275Z,101805.50
2019-04-10T23:53:18.344Z,101798.69
2019-04-10T23:55:48.298Z,101804.74
2019-04-10T23:58:18.095Z,101811.50
